createdAt,value
2022-11-30T00:01:14.657Z,98666.28
2022-11-30T00:03:41.690Z,98667.81
2022-11-30T00:06:10.604Z,98667.19
2022-11-30T00:08:37.414Z,98667.34
2022-11-30T00:11:14.171Z,98670.94
2022-11-30T00:13:42.072Z,98673.09
2022-11-30T00:16:09.100Z,98666.22
2022-11-30T00:18:36.330Z,98669.88
2022-11-30T00:21:10.388Z,98667.59
2022-11-30T00:23:39.202Z,98667.19
2022-11-30T00:26:08.916Z,98665.34
2022-11-30T00:28:36.291Z,98663.06
2022-11-30T00:31:05.532Z,98661.50
2022-11-30T00:33:33.949Z,98665.88
2022-11-30T00:36:02.864Z,98659.69
2022-11-30T00:38:29.514Z,98661.59
2022-11-30T00:40:56.733Z,98654.69
2022-11-30T00:43:23.837Z,98653.31
2022-11-30T00:45:50.658Z,98649.19
2022-11-30T00:48:17.327Z,98648.50
2022-11-30T00:50:43.998Z,98648.72
2022-11-30T00:53:10.653Z,98646.19
2022-11-30T00:55:37.266Z,98646.66
2022-11-30T00:58:03.975Z,98646.78
2022-11-30T01:00:30.772Z,98650.84
2022-11-30T01:02:59.389Z,98647.81
2022-11-30T01:05:26.371Z,98645.66
2022-11-30T01:07:52.988Z,98645.19
2022-11-30T01:10:20.066Z,98633.22
2022-11-30T01:12:46.647Z,98635.78
2022-11-30T01:15:13.280Z,98634.75
2022-11-30T01:17:39.895Z,98626.88
2022-11-30T01:20:08.210Z,98630.69
2022-11-30T01:22:35.701Z,98626.25
2022-11-30T01:25:02.618Z,98637.81
2022-11-30T01:27:29.298Z,98631.94
2022-11-30T01:29:55.971Z,98639.84
2022-11-30T01:32:22.812Z,98631.78
2022-11-30T01:34:49.523Z,98630.47
2022-11-30T01:37:16.233Z,98634.28
2022-11-30T01:39:42.881Z,98636.13
2022-11-30T01:42:15.763Z,98635.47
2022-11-30T01:44:53.550Z,98626.56
2022-11-30T01:47:42.641Z,98625.13
2022-11-30T01:50:24.024Z,98619.41
2022-11-30T01:52:56.391Z,98615.03
2022-11-30T01:55:42.472Z,98624.25
2022-11-30T01:58:28.006Z,98618.06
2022-11-30T02:00:54.717Z,98623.25
2022-11-30T02:03:24.327Z,98616.88
2022-11-30T02:05:50.908Z,98614.38
2022-11-30T02:08:19.056Z,98615.03
2022-11-30T02:10:52.675Z,98617.72
2022-11-30T02:13:22.171Z,98608.16
2022-11-30T02:16:07.376Z,98620.72
2022-11-30T02:18:55.624Z,98612.81
2022-11-30T02:21:26.600Z,98615.50
2022-11-30T02:23:56.004Z,98612.16
2022-11-30T02:26:42.997Z,98608.47
2022-11-30T02:29:17.855Z,98609.00
2022-11-30T02:32:07.084Z,98609.00
2022-11-30T02:34:36.989Z,98613.34
2022-11-30T02:37:06.896Z,98601.75
2022-11-30T02:39:33.570Z,98618.38
2022-11-30T02:42:00.198Z,98611.97
2022-11-30T02:44:28.294Z,98622.56
2022-11-30T02:47:20.219Z,98631.41
2022-11-30T02:49:50.310Z,98635.38
2022-11-30T02:52:19.829Z,98633.31
2022-11-30T02:54:46.757Z,98629.25
2022-11-30T02:57:13.572Z,98638.84
2022-11-30T02:59:40.406Z,98643.69
2022-11-30T03:02:06.976Z,98640.47
2022-11-30T03:04:33.571Z,98645.66
2022-11-30T03:07:00.245Z,98642.84
2022-11-30T03:09:26.847Z,98647.66
2022-11-30T03:11:53.423Z,98654.16
2022-11-30T03:14:20.028Z,98644.28
2022-11-30T03:16:46.598Z,98640.59
2022-11-30T03:19:14.192Z,98648.50
2022-11-30T03:21:40.887Z,98647.34
2022-11-30T03:24:07.928Z,98646.19
2022-11-30T03:26:34.558Z,98651.88
2022-11-30T03:29:01.201Z,98650.09
2022-11-30T03:31:27.968Z,98659.84
2022-11-30T03:33:54.622Z,98653.69
2022-11-30T03:36:21.389Z,98660.06
2022-11-30T03:38:47.978Z,98662.75
2022-11-30T03:41:16.595Z,98660.75
2022-11-30T03:43:44.726Z,98657.22
2022-11-30T03:46:11.792Z,98663.44
2022-11-30T03:48:38.580Z,98667.44
2022-11-30T03:51:05.815Z,98665.28
2022-11-30T03:53:32.721Z,98666.81
2022-11-30T03:56:02.432Z,98658.00
2022-11-30T03:58:29.664Z,98662.53
2022-11-30T04:01:06.938Z,98662.53
2022-11-30T04:03:34.341Z,98660.06
2022-11-30T04:06:01.273Z,98665.72
2022-11-30T04:08:29.385Z,98671.81
2022-11-30T04:10:57.926Z,98671.63
2022-11-30T04:13:25.476Z,98677.84
2022-11-30T04:15:55.021Z,98679.16
2022-11-30T04:18:23.466Z,98683.53
2022-11-30T04:20:52.408Z,98688.81
2022-11-30T04:23:20.397Z,98688.41
2022-11-30T04:25:48.154Z,98688.41
2022-11-30T04:28:16.146Z,98690.31
2022-11-30T04:30:43.305Z,98689.47
2022-11-30T04:33:10.426Z,98686.25
2022-11-30T04:35:42.101Z,98692.66
2022-11-30T04:38:08.793Z,98699.66
2022-11-30T04:40:39.777Z,98691.09
2022-11-30T04:43:06.519Z,98692.47
2022-11-30T04:45:35.586Z,98701.59
2022-11-30T04:48:03.677Z,98705.66
2022-11-30T04:50:30.402Z,98708.34
2022-11-30T04:52:57.242Z,98703.16
2022-11-30T04:55:24.597Z,98713.88
2022-11-30T04:57:51.296Z,98706.97
2022-11-30T05:00:19.719Z,98703.22
2022-11-30T05:02:52.501Z,98710.56
2022-11-30T05:05:20.039Z,98714.72
2022-11-30T05:07:59.316Z,98719.25
2022-11-30T05:10:27.780Z,98716.69
2022-11-30T05:12:54.732Z,98710.66
2022-11-30T05:15:21.523Z,98713.03
2022-11-30T05:17:48.124Z,98715.09
2022-11-30T05:20:14.864Z,98713.13
2022-11-30T05:22:41.444Z,98717.78
2022-11-30T05:25:09.297Z,98712.72
2022-11-30T05:27:37.086Z,98716.25
2022-11-30T05:30:04.116Z,98713.03
2022-11-30T05:32:30.700Z,98715.09
2022-11-30T05:34:57.740Z,98710.56
2022-11-30T05:37:24.708Z,98725.72
2022-11-30T05:39:51.350Z,98726.50
2022-11-30T05:42:18.036Z,98732.16
2022-11-30T05:44:45.430Z,98718.97
2022-11-30T05:47:12.591Z,98732.41
2022-11-30T05:49:39.330Z,98745.34
2022-11-30T05:52:05.996Z,98745.25
2022-11-30T05:54:34.418Z,98740.06
2022-11-30T05:57:01.403Z,98741.72
2022-11-30T05:59:28.010Z,98741.81
2022-11-30T06:01:54.792Z,98723.53
2022-11-30T06:04:21.835Z,98721.44
2022-11-30T06:06:49.601Z,98720.75
2022-11-30T06:09:16.634Z,98734.53
2022-11-30T06:11:43.292Z,98729.63
2022-11-30T06:14:09.837Z,98742.94
2022-11-30T06:16:39.726Z,98740.97
2022-11-30T06:19:06.774Z,98735.19
2022-11-30T06:21:33.546Z,98733.22
2022-11-30T06:24:01.058Z,98735.84
2022-11-30T06:26:27.693Z,98736.69
2022-11-30T06:28:54.291Z,98728.31
2022-11-30T06:31:21.009Z,98750.09
2022-11-30T06:33:47.651Z,98746.28
2022-11-30T06:36:14.209Z,98758.69
2022-11-30T06:38:40.838Z,98754.69
2022-11-30T06:41:09.558Z,98759.22
2022-11-30T06:43:37.991Z,98763.28
2022-11-30T06:46:05.849Z,98758.53
2022-11-30T06:48:32.984Z,98767.22
2022-11-30T06:51:00.565Z,98764.22
2022-11-30T06:53:27.617Z,98770.63
2022-11-30T06:55:54.230Z,98775.81
2022-11-30T06:58:20.870Z,98767.22
2022-11-30T07:00:47.739Z,98777.50
2022-11-30T07:03:14.605Z,98779.44
2022-11-30T07:05:46.073Z,98770.41
2022-11-30T07:08:14.848Z,98772.22
2022-11-30T07:10:43.050Z,98779.66
2022-11-30T07:13:12.059Z,98774.00
2022-11-30T07:15:40.380Z,98777.22
2022-11-30T07:18:07.858Z,98776.38
2022-11-30T07:20:35.006Z,98777.38
2022-11-30T07:23:20.036Z,98781.53
2022-11-30T07:26:05.398Z,98784.13
2022-11-30T07:28:36.601Z,98773.47
2022-11-30T07:31:16.389Z,98771.56
2022-11-30T07:33:43.766Z,98773.50
2022-11-30T07:36:10.853Z,98780.69
2022-11-30T07:38:38.207Z,98784.38
2022-11-30T07:41:05.412Z,98781.16
2022-11-30T07:43:32.677Z,98777.63
2022-11-30T07:46:00.200Z,98779.78
2022-11-30T07:48:27.353Z,98780.09
2022-11-30T07:50:54.238Z,98783.69
2022-11-30T07:53:20.888Z,98783.63
2022-11-30T07:55:48.944Z,98784.91
2022-11-30T07:58:18.122Z,98787.28
2022-11-30T08:00:44.713Z,98795.03
2022-11-30T08:03:11.386Z,98791.66
2022-11-30T08:05:38.133Z,98794.88
2022-11-30T08:08:04.734Z,98792.66
2022-11-30T08:10:31.801Z,98806.94
2022-11-30T08:12:58.436Z,98810.75
2022-11-30T08:15:31.885Z,98792.25
2022-11-30T08:18:05.276Z,98800.72
2022-11-30T08:20:31.929Z,98805.38
2022-11-30T08:22:58.917Z,98805.09
2022-11-30T08:25:25.515Z,98794.19
2022-11-30T08:27:52.096Z,98790.72
2022-11-30T08:30:18.811Z,98798.78
2022-11-30T08:32:45.352Z,98795.97
2022-11-30T08:35:11.903Z,98795.66
2022-11-30T08:37:38.855Z,98795.19
2022-11-30T08:40:06.249Z,98789.59
2022-11-30T08:42:32.872Z,98786.47
2022-11-30T08:44:59.789Z,98779.38
2022-11-30T08:47:26.735Z,98776.78
2022-11-30T08:49:53.340Z,98772.25
2022-11-30T08:52:19.963Z,98771.72
2022-11-30T08:54:48.205Z,98769.78
2022-11-30T08:57:21.436Z,98770.56
2022-11-30T08:59:48.644Z,98776.47
2022-11-30T09:02:18.105Z,98772.78
2022-11-30T09:04:47.558Z,98770.03
2022-11-30T09:07:14.426Z,98784.28
2022-11-30T09:09:41.058Z,98779.53
2022-11-30T09:12:08.103Z,98777.91
2022-11-30T09:14:34.908Z,98780.06
2022-11-30T09:17:01.568Z,98775.97
2022-11-30T09:19:28.376Z,98774.38
2022-11-30T09:21:55.095Z,98777.69
2022-11-30T09:24:21.788Z,98782.75
2022-11-30T09:26:48.432Z,98769.25
2022-11-30T09:29:15.167Z,98770.31
2022-11-30T09:31:41.791Z,98763.72
2022-11-30T09:34:11.353Z,98769.31
2022-11-30T09:36:37.972Z,98762.13
2022-11-30T09:39:04.516Z,98760.09
2022-11-30T09:42:04.811Z,98753.06
2022-11-30T09:44:43.485Z,98761.13
2022-11-30T09:47:10.235Z,98761.97
2022-11-30T09:49:45.779Z,98754.28
2022-11-30T09:52:18.899Z,98747.09
2022-11-30T09:54:47.111Z,98747.09
2022-11-30T09:57:29.110Z,98749.38
2022-11-30T10:00:01.006Z,98749.69
2022-11-30T10:02:33.972Z,98741.56
2022-11-30T10:05:01.149Z,98731.22
2022-11-30T10:07:39.565Z,98747.09
2022-11-30T10:10:30.932Z,98736.88
2022-11-30T10:13:11.368Z,98742.56
2022-11-30T10:15:48.509Z,98739.75
2022-11-30T10:18:42.833Z,98743.88
2022-11-30T10:21:38.146Z,98740.88
2022-11-30T10:24:04.703Z,98739.22
2022-11-30T10:26:38.264Z,98725.28
2022-11-30T10:29:14.501Z,98732.59
2022-11-30T10:31:43.422Z,98721.56
2022-11-30T10:34:21.341Z,98728.00
2022-11-30T10:37:06.415Z,98731.97
2022-11-30T10:39:43.861Z,98731.66
2022-11-30T10:42:26.414Z,98719.88
2022-11-30T10:45:23.568Z,98728.53
2022-11-30T10:48:03.923Z,98719.94
2022-11-30T10:50:31.716Z,98735.22
2022-11-30T10:53:00.906Z,98727.69
2022-11-30T10:55:31.776Z,98739.22
2022-11-30T10:58:07.404Z,98736.81
2022-11-30T11:00:33.979Z,98732.59
2022-11-30T11:03:00.607Z,98730.44
2022-11-30T11:05:29.268Z,98734.72
2022-11-30T11:08:02.667Z,98728.31
2022-11-30T11:10:51.463Z,98731.59
2022-11-30T11:13:21.122Z,98727.47
2022-11-30T11:15:59.733Z,98734.06
2022-11-30T11:18:34.147Z,98733.56
2022-11-30T11:21:06.251Z,98739.13
2022-11-30T11:23:37.037Z,98724.97
2022-11-30T11:26:05.524Z,98735.19
2022-11-30T11:28:33.076Z,98737.28
2022-11-30T11:31:00.113Z,98730.00
2022-11-30T11:33:29.508Z,98740.09
2022-11-30T11:36:08.247Z,98746.53
2022-11-30T11:38:43.481Z,98753.59
2022-11-30T11:41:33.735Z,98766.19
2022-11-30T11:44:22.264Z,98755.06
2022-11-30T11:47:01.253Z,98755.69
2022-11-30T11:49:31.849Z,98753.31
2022-11-30T11:52:14.563Z,98762.03
2022-11-30T11:54:46.391Z,98765.41
2022-11-30T11:57:15.863Z,98760.19
2022-11-30T12:00:01.263Z,98776.28
2022-11-30T12:02:45.584Z,98776.16
2022-11-30T12:05:18.126Z,98777.84
2022-11-30T12:07:53.823Z,98772.16
2022-11-30T12:13:22.104Z,98764.56
2022-11-30T12:15:58.650Z,98772.47
2022-11-30T12:18:32.797Z,98772.88
2022-11-30T12:21:14.529Z,98768.88
2022-11-30T12:24:04.147Z,98761.91
2022-11-30T12:26:33.734Z,98763.09
2022-11-30T12:29:15.648Z,98762.81
2022-11-30T12:32:12.773Z,98766.19
2022-11-30T12:35:27.321Z,98764.34
2022-11-30T12:38:15.985Z,98758.66
2022-11-30T12:41:14.052Z,98758.66
2022-11-30T12:44:09.522Z,98759.34
2022-11-30T12:46:56.873Z,98757.97
2022-11-30T12:49:53.198Z,98765.34
2022-11-30T12:52:29.782Z,98765.19
2022-11-30T12:54:56.318Z,98766.03
2022-11-30T12:57:35.180Z,98764.56
2022-11-30T13:00:13.761Z,98764.72
2022-11-30T13:02:58.190Z,98771.47
2022-11-30T13:05:32.791Z,98770.19
2022-11-30T13:08:23.137Z,98777.53
2022-11-30T13:10:55.964Z,98761.88
2022-11-30T13:13:28.922Z,98772.16
2022-11-30T13:15:56.580Z,98768.47
2022-11-30T13:18:24.461Z,98766.09
2022-11-30T13:21:09.752Z,98773.84
2022-11-30T13:23:54.312Z,98773.91
2022-11-30T13:26:49.606Z,98776.16
2022-11-30T13:29:28.051Z,98778.75
2022-11-30T13:32:17.694Z,98783.47
2022-11-30T13:34:54.419Z,98774.22
2022-11-30T13:37:27.155Z,98779.72
2022-11-30T13:39:57.612Z,98779.72
2022-11-30T13:42:47.345Z,98774.63
2022-11-30T13:45:30.910Z,98777.31
2022-11-30T13:47:58.862Z,98769.41
2022-11-30T13:50:37.777Z,98763.88
2022-11-30T13:53:04.438Z,98759.03
2022-11-30T13:55:33.887Z,98757.22
2022-11-30T13:58:00.477Z,98760.41
2022-11-30T14:00:30.169Z,98765.78
2022-11-30T14:03:19.410Z,98771.16
2022-11-30T14:05:56.237Z,98769.78
2022-11-30T14:08:22.783Z,98767.72
2022-11-30T14:10:51.452Z,98769.88
2022-11-30T14:13:20.287Z,98772.88
2022-11-30T14:15:46.889Z,98764.13
2022-11-30T14:18:21.794Z,98780.94
2022-11-30T14:20:52.350Z,98780.09
2022-11-30T14:23:27.568Z,98790.13
2022-11-30T14:25:56.855Z,98786.44
2022-11-30T14:28:28.646Z,98790.28
2022-11-30T14:30:56.232Z,98787.44
2022-11-30T14:33:45.586Z,98783.22
2022-11-30T14:36:12.335Z,98787.28
2022-11-30T14:38:42.188Z,98789.25
2022-11-30T14:41:41.223Z,98796.47
2022-11-30T14:44:14.423Z,98789.97
2022-11-30T14:46:41.224Z,98787.69
2022-11-30T14:49:24.091Z,98783.03
2022-11-30T14:52:00.958Z,98781.22
2022-11-30T14:54:46.670Z,98790.97
2022-11-30T14:57:34.465Z,98794.28
2022-11-30T15:00:01.114Z,98789.19
2022-11-30T15:02:38.715Z,98784.84
2022-11-30T15:05:07.311Z,98789.50
2022-11-30T15:07:36.480Z,98794.41
2022-11-30T15:10:08.012Z,98800.09
2022-11-30T15:12:35.829Z,98798.53
2022-11-30T15:15:20.074Z,98790.97
2022-11-30T15:17:50.674Z,98806.22
2022-11-30T15:20:23.094Z,98797.84
2022-11-30T15:22:49.895Z,98803.06
2022-11-30T15:25:16.757Z,98810.13
2022-11-30T15:27:43.756Z,98811.66
2022-11-30T15:30:15.326Z,98807.44
2022-11-30T15:32:45.242Z,98809.56
2022-11-30T15:36:04.875Z,98813.56
2022-11-30T15:38:27.380Z,98805.09
2022-11-30T15:41:05.862Z,98818.06
2022-11-30T15:43:38.688Z,98807.50
2022-11-30T15:46:06.348Z,98813.56
2022-11-30T15:48:38.152Z,98812.47
2022-11-30T15:51:05.490Z,98820.53
2022-11-30T15:53:54.218Z,98808.00
2022-11-30T15:56:28.736Z,98816.16
2022-11-30T15:59:20.464Z,98824.94
2022-11-30T16:02:08.911Z,98828.34
2022-11-30T16:04:57.103Z,98833.00
2022-11-30T16:07:52.968Z,98832.84
2022-11-30T16:10:35.002Z,98828.91
2022-11-30T16:13:02.192Z,98835.13
2022-11-30T16:15:31.296Z,98838.50
2022-11-30T16:18:12.783Z,98837.38
2022-11-30T16:20:41.862Z,98841.19
2022-11-30T16:23:16.142Z,98840.72
2022-11-30T16:25:44.273Z,98847.25
2022-11-30T16:28:12.372Z,98838.91
2022-11-30T16:30:39.916Z,98848.09
2022-11-30T16:33:13.253Z,98838.50
2022-11-30T16:35:55.116Z,98842.19
2022-11-30T16:38:23.174Z,98842.34
2022-11-30T16:40:49.963Z,98840.81
2022-11-30T16:43:16.668Z,98842.63
2022-11-30T16:45:46.853Z,98839.09
2022-11-30T16:48:14.401Z,98842.34
2022-11-30T16:50:41.623Z,98845.88
2022-11-30T16:53:17.527Z,98832.59
2022-11-30T16:55:44.543Z,98832.56
2022-11-30T16:58:11.222Z,98844.97
2022-11-30T17:00:40.270Z,98848.34
2022-11-30T17:03:20.717Z,98855.00
2022-11-30T17:05:47.511Z,98854.31
2022-11-30T17:08:14.224Z,98850.63
2022-11-30T17:10:41.010Z,98848.09
2022-11-30T17:13:13.736Z,98847.94
2022-11-30T17:15:40.423Z,98847.38
2022-11-30T17:18:07.163Z,98850.63
2022-11-30T17:20:35.865Z,98856.16
2022-11-30T17:23:03.463Z,98855.00
2022-11-30T17:25:30.113Z,98856.84
2022-11-30T17:27:56.699Z,98856.16
2022-11-30T17:30:24.111Z,98852.06
2022-11-30T17:32:50.825Z,98848.41
2022-11-30T17:35:19.088Z,98854.59
2022-11-30T17:37:46.156Z,98850.47
2022-11-30T17:40:15.569Z,98854.91
2022-11-30T17:42:43.471Z,98850.41
2022-11-30T17:45:10.335Z,98847.03
2022-11-30T17:47:37.604Z,98844.25
2022-11-30T17:50:05.274Z,98844.28
2022-11-30T17:52:31.864Z,98833.13
2022-11-30T17:54:58.489Z,98833.53
2022-11-30T17:57:25.104Z,98830.13
2022-11-30T17:59:51.699Z,98842.88
2022-11-30T18:02:18.398Z,98839.75
2022-11-30T18:04:45.108Z,98840.72
2022-11-30T18:07:11.924Z,98845.13
2022-11-30T18:09:42.515Z,98847.41
2022-11-30T18:12:10.470Z,98834.91
2022-11-30T18:14:37.078Z,98842.94
2022-11-30T18:17:03.962Z,98846.06
2022-11-30T18:19:30.719Z,98841.66
2022-11-30T18:21:57.492Z,98845.06
2022-11-30T18:24:25.720Z,98855.63
2022-11-30T18:26:52.938Z,98859.03
2022-11-30T18:29:19.934Z,98858.53
2022-11-30T18:31:48.478Z,98859.75
2022-11-30T18:34:15.381Z,98866.53
2022-11-30T18:36:42.128Z,98864.56
2022-11-30T18:39:09.128Z,98865.13
2022-11-30T18:41:36.517Z,98862.97
2022-11-30T18:44:03.089Z,98855.91
2022-11-30T18:46:30.346Z,98856.91
2022-11-30T18:48:57.157Z,98853.09
2022-11-30T18:51:26.204Z,98855.75
2022-11-30T18:53:58.604Z,98857.03
2022-11-30T18:56:26.985Z,98853.34
2022-11-30T18:58:59.001Z,98846.91
2022-11-30T19:01:26.656Z,98860.41
2022-11-30T19:03:55.890Z,98855.34
2022-11-30T19:06:24.777Z,98868.28
2022-11-30T19:08:51.514Z,98864.38
2022-11-30T19:11:18.731Z,98851.81
2022-11-30T19:13:45.800Z,98844.63
2022-11-30T19:16:15.153Z,98848.78
2022-11-30T19:18:42.520Z,98849.06
2022-11-30T19:21:11.044Z,98855.19
2022-11-30T19:23:38.630Z,98851.34
2022-11-30T19:26:06.968Z,98858.13
2022-11-30T19:28:35.342Z,98857.31
2022-11-30T19:31:08.351Z,98863.22
2022-11-30T19:33:36.918Z,98865.22
2022-11-30T19:36:05.585Z,98867.91
2022-11-30T19:38:33.006Z,98863.34
2022-11-30T19:40:59.625Z,98857.91
2022-11-30T19:43:26.237Z,98859.69
2022-11-30T19:45:52.846Z,98850.00
2022-11-30T19:48:19.529Z,98859.31
2022-11-30T19:50:46.131Z,98855.13
2022-11-30T19:53:12.771Z,98860.00
2022-11-30T19:55:40.410Z,98862.44
2022-11-30T19:58:07.005Z,98856.78
2022-11-30T20:00:33.675Z,98863.84
2022-11-30T20:03:00.328Z,98860.19
2022-11-30T20:05:27.068Z,98864.44
2022-11-30T20:07:53.748Z,98853.72
2022-11-30T20:10:20.362Z,98856.41
2022-11-30T20:12:46.940Z,98849.94
2022-11-30T20:15:13.502Z,98858.94
2022-11-30T20:17:40.157Z,98858.66
2022-11-30T20:20:07.163Z,98867.13
2022-11-30T20:22:33.850Z,98864.88
2022-11-30T20:25:00.461Z,98854.28
2022-11-30T20:27:27.146Z,98852.88
2022-11-30T20:29:53.745Z,98855.25
2022-11-30T20:32:20.426Z,98858.09
2022-11-30T20:34:47.192Z,98856.81
2022-11-30T20:37:15.839Z,98868.53
2022-11-30T20:39:45.716Z,98861.88
2022-11-30T20:42:13.364Z,98860.34
2022-11-30T20:44:39.948Z,98859.50
2022-11-30T20:47:06.585Z,98864.47
2022-11-30T20:49:33.173Z,98864.88
2022-11-30T20:51:59.832Z,98871.91
2022-11-30T20:54:26.545Z,98870.66
2022-11-30T20:56:53.127Z,98864.88
2022-11-30T20:59:23.665Z,98857.25
2022-11-30T21:01:50.502Z,98863.19
2022-11-30T21:04:17.238Z,98865.75
2022-11-30T21:06:45.710Z,98868.25
2022-11-30T21:09:17.482Z,98868.00
2022-11-30T21:11:45.093Z,98872.63
2022-11-30T21:14:12.372Z,98872.66
2022-11-30T21:16:39.259Z,98871.53
2022-11-30T21:19:06.274Z,98869.25
2022-11-30T21:21:35.357Z,98868.13
2022-11-30T21:24:08.025Z,98854.88
2022-11-30T21:26:37.999Z,98860.81
2022-11-30T21:29:16.190Z,98863.31
2022-11-30T21:31:43.462Z,98853.31
2022-11-30T21:34:10.343Z,98855.59
2022-11-30T21:36:37.099Z,98857.72
2022-11-30T21:39:07.075Z,98862.22
2022-11-30T21:41:36.180Z,98853.91
2022-11-30T21:44:04.025Z,98859.97
2022-11-30T21:46:31.171Z,98862.66
2022-11-30T21:48:58.259Z,98853.63
2022-11-30T21:51:27.359Z,98853.19
2022-11-30T21:53:57.047Z,98856.16
2022-11-30T21:56:26.083Z,98861.09
2022-11-30T21:58:52.987Z,98860.66
2022-11-30T22:01:34.526Z,98864.03
2022-11-30T22:04:03.330Z,98865.03
2022-11-30T22:06:31.363Z,98859.09
2022-11-30T22:09:03.548Z,98861.91
2022-11-30T22:11:30.923Z,98860.09
2022-11-30T22:13:57.476Z,98850.66
2022-11-30T22:16:29.971Z,98851.94
2022-11-30T22:19:01.168Z,98857.28
2022-11-30T22:21:29.974Z,98851.22
2022-11-30T22:24:01.874Z,98844.44
2022-11-30T22:26:34.163Z,98850.38
2022-11-30T22:29:04.053Z,98854.75
2022-11-30T22:31:36.465Z,98854.75
2022-11-30T22:34:03.304Z,98845.03
2022-11-30T22:36:31.832Z,98837.97
2022-11-30T22:38:59.767Z,98848.13
2022-11-30T22:41:27.537Z,98841.34
2022-11-30T22:43:55.612Z,98832.63
2022-11-30T22:46:33.837Z,98834.59
2022-11-30T22:49:02.579Z,98831.78
2022-11-30T22:51:31.408Z,98831.19
2022-11-30T22:53:58.659Z,98825.13
2022-11-30T22:56:28.568Z,98817.78
2022-11-30T22:58:58.825Z,98820.16
2022-11-30T23:01:28.319Z,98826.38
2022-11-30T23:03:57.025Z,98823.81
2022-11-30T23:06:24.695Z,98826.69
2022-11-30T23:08:52.019Z,98822.16
2022-11-30T23:11:25.464Z,98825.28
2022-11-30T23:13:52.381Z,98824.69
2022-11-30T23:16:20.160Z,98818.50
2022-11-30T23:18:54.690Z,98814.69
2022-11-30T23:21:22.920Z,98817.66
2022-11-30T23:23:50.183Z,98812.56
2022-11-30T23:26:25.304Z,98822.16
2022-11-30T23:28:53.452Z,98817.09
2022-11-30T23:31:32.913Z,98818.94
2022-11-30T23:34:04.734Z,98813.16
2022-11-30T23:36:32.119Z,98814.56
2022-11-30T23:39:04.363Z,98820.59
2022-11-30T23:41:31.213Z,98814.25
2022-11-30T23:43:57.884Z,98816.94
2022-11-30T23:46:25.039Z,98812.13
2022-11-30T23:48:52.137Z,98810.41
2022-11-30T23:51:18.892Z,98801.66
2022-11-30T23:53:46.696Z,98818.47
2022-11-30T23:56:16.228Z,98818.03
2022-11-30T23:58:43.431Z,98812.81
